sensor_id;sensor_type;location;lat;lon;timestamp;temperature;humidity
27226;DHT22;14732;51.074;3.788;2024-01-06T00:01:46;8.00;99.90
27226;DHT22;14732;51.074;3.788;2024-01-06T00:04:12;7.90;99.90
27226;DHT22;14732;51.074;3.788;2024-01-06T00:06:37;7.90;99.90
27226;DHT22;14732;51.074;3.788;2024-01-06T00:09:03;7.90;99.90
27226;DHT22;14732;51.074;3.788;2024-01-06T00:11:29;8.00;99.90
27226;DHT22;14732;51.074;3.788;2024-01-06T00:13:54;8.00;99.90
27226;DHT22;14732;51.074;3.788;2024-01-06T00:16:20;7.90;99.90
27226;DHT22;14732;51.074;3.788;2024-01-06T00:18:47;7.80;99.90
27226;DHT22;14732;51.074;3.788;2024-01-06T00:21:13;7.80;99.90
27226;DHT22;14732;51.074;3.788;2024-01-06T00:23:40;7.90;99.90
27226;DHT22;14732;51.074;3.788;2024-01-06T00:26:06;7.90;99.90
27226;DHT22;14732;51.074;3.788;2024-01-06T00:28:32;7.90;99.90
27226;DHT22;14732;51.074;3.788;2024-01-06T00:30:57;7.80;99.90
27226;DHT22;14732;51.074;3.788;2024-01-06T00:33:23;7.80;99.90
27226;DHT22;14732;51.074;3.788;2024-01-06T00:35:49;7.80;99.90
27226;DHT22;14732;51.074;3.788;2024-01-06T00:38:14;7.80;99.90
27226;DHT22;14732;51.074;3.788;2024-01-06T00:40:40;7.80;99.90
27226;DHT22;14732;51.074;3.788;2024-01-06T00:43:05;7.70;99.90
27226;DHT22;14732;51.074;3.788;2024-01-06T00:45:31;7.70;99.90
27226;DHT22;14732;51.074;3.788;2024-01-06T00:47:57;7.80;99.90
27226;DHT22;14732;51.074;3.788;2024-01-06T00:50:23;7.70;99.90
27226;DHT22;14732;51.074;3.788;2024-01-06T00:52:49;7.70;99.90
27226;DHT22;14732;51.074;3.788;2024-01-06T00:55:21;7.70;99.90
27226;DHT22;14732;51.074;3.788;2024-01-06T00:57:47;7.70;99.90
27226;DHT22;14732;51.074;3.788;2024-01-06T01:00:13;7.80;99.90
27226;DHT22;14732;51.074;3.788;2024-01-06T01:02:39;7.70;99.90
27226;DHT22;14732;51.074;3.788;2024-01-06T01:05:05;7.60;99.90
27226;DHT22;14732;51.074;3.788;2024-01-06T01:07:32;7.60;99.90
27226;DHT22;14732;51.074;3.788;2024-01-06T01:09:58;7.60;99.90
27226;DHT22;14732;51.074;3.788;2024-01-06T01:12:24;7.70;99.90
27226;DHT22;14732;51.074;3.788;2024-01-06T01:14:50;7.70;99.90
27226;DHT22;14732;51.074;3.788;2024-01-06T01:17:16;7.90;99.90
27226;DHT22;14732;51.074;3.788;2024-01-06T01:19:42;7.80;99.90
27226;DHT22;14732;51.074;3.788;2024-01-06T01:22:08;7.90;99.90
27226;DHT22;14732;51.074;3.788;2024-01-06T01:24:34;7.90;99.90
27226;DHT22;14732;51.074;3.788;2024-01-06T01:26:59;7.80;99.90
27226;DHT22;14732;51.074;3.788;2024-01-06T01:29:25;7.90;99.90
27226;DHT22;14732;51.074;3.788;2024-01-06T01:31:50;8.00;99.90
27226;DHT22;14732;51.074;3.788;2024-01-06T01:34:16;7.90;99.90
27226;DHT22;14732;51.074;3.788;2024-01-06T01:36:42;7.90;99.90
27226;DHT22;14732;51.074;3.788;2024-01-06T01:39:08;8.00;99.90
27226;DHT22;14732;51.074;3.788;2024-01-06T01:41:34;8.10;99.90
27226;DHT22;14732;51.074;3.788;2024-01-06T01:43:59;8.10;99.90
27226;DHT22;14732;51.074;3.788;2024-01-06T01:46:29;7.90;99.90
27226;DHT22;14732;51.074;3.788;2024-01-06T01:48:56;8.00;99.90
27226;DHT22;14732;51.074;3.788;2024-01-06T01:51:22;8.00;99.90
27226;DHT22;14732;51.074;3.788;2024-01-06T01:53:49;8.00;99.90
27226;DHT22;14732;51.074;3.788;2024-01-06T01:56:15;8.00;99.90
27226;DHT22;14732;51.074;3.788;2024-01-06T01:58:42;8.10;99.90
27226;DHT22;14732;51.074;3.788;2024-01-06T02:01:08;8.10;99.90
27226;DHT22;14732;51.074;3.788;2024-01-06T02:03:35;8.10;99.90
27226;DHT22;14732;51.074;3.788;2024-01-06T02:06:01;8.10;99.90
27226;DHT22;14732;51.074;3.788;2024-01-06T02:08:26;8.10;99.90
27226;DHT22;14732;51.074;3.788;2024-01-06T02:10:55;8.20;99.90
27226;DHT22;14732;51.074;3.788;2024-01-06T02:13:22;8.10;99.90
27226;DHT22;14732;51.074;3.788;2024-01-06T02:15:49;8.00;99.90
27226;DHT22;14732;51.074;3.788;2024-01-06T02:18:15;8.10;99.90
27226;DHT22;14732;51.074;3.788;2024-01-06T02:20:44;8.10;99.90
27226;DHT22;14732;51.074;3.788;2024-01-06T02:23:11;8.20;99.90
27226;DHT22;14732;51.074;3.788;2024-01-06T02:25:37;8.20;99.90
27226;DHT22;14732;51.074;3.788;2024-01-06T02:28:03;8.00;99.90
27226;DHT22;14732;51.074;3.788;2024-01-06T02:30:29;7.90;99.90
27226;DHT22;14732;51.074;3.788;2024-01-06T02:32:54;7.90;99.90
27226;DHT22;14732;51.074;3.788;2024-01-06T02:35:20;7.90;99.90
27226;DHT22;14732;51.074;3.788;2024-01-06T02:37:46;7.90;99.90
27226;DHT22;14732;51.074;3.788;2024-01-06T02:40:13;7.80;99.90
27226;DHT22;14732;51.074;3.788;2024-01-06T02:42:39;7.70;99.90
27226;DHT22;14732;51.074;3.788;2024-01-06T02:45:05;7.80;99.90
27226;DHT22;14732;51.074;3.788;2024-01-06T02:47:31;7.70;99.90
27226;DHT22;14732;51.074;3.788;2024-01-06T02:49:56;7.80;99.90
27226;DHT22;14732;51.074;3.788;2024-01-06T02:52:22;7.90;99.90
27226;DHT22;14732;51.074;3.788;2024-01-06T02:54:48;8.10;99.90
27226;DHT22;14732;51.074;3.788;2024-01-06T02:57:14;8.10;99.90
27226;DHT22;14732;51.074;3.788;2024-01-06T02:59:40;8.10;99.90
27226;DHT22;14732;51.074;3.788;2024-01-06T03:02:06;8.00;99.90
27226;DHT22;14732;51.074;3.788;2024-01-06T03:04:31;8.10;99.90
27226;DHT22;14732;51.074;3.788;2024-01-06T03:06:57;8.20;99.90
27226;DHT22;14732;51.074;3.788;2024-01-06T03:09:23;8.50;99.90
27226;DHT22;14732;51.074;3.788;2024-01-06T03:11:48;8.40;99.90
27226;DHT22;14732;51.074;3.788;2024-01-06T03:14:14;8.40;99.90
27226;DHT22;14732;51.074;3.788;2024-01-06T03:16:40;8.30;99.90
27226;DHT22;14732;51.074;3.788;2024-01-06T03:19:06;8.10;99.90
27226;DHT22;14732;51.074;3.788;2024-01-06T03:21:32;8.00;99.90
27226;DHT22;14732;51.074;3.788;2024-01-06T03:23:57;8.10;99.90
27226;DHT22;14732;51.074;3.788;2024-01-06T03:26:23;8.10;99.90
27226;DHT22;14732;51.074;3.788;2024-01-06T03:28:49;8.20;99.90
27226;DHT22;14732;51.074;3.788;2024-01-06T03:31:15;8.10;99.90
27226;DHT22;14732;51.074;3.788;2024-01-06T03:33:42;8.20;99.90
27226;DHT22;14732;51.074;3.788;2024-01-06T03:36:08;8.40;99.90
27226;DHT22;14732;51.074;3.788;2024-01-06T03:38:34;8.40;99.90
27226;DHT22;14732;51.074;3.788;2024-01-06T03:40:59;8.50;99.90
27226;DHT22;14732;51.074;3.788;2024-01-06T03:43:25;8.50;99.90
27226;DHT22;14732;51.074;3.788;2024-01-06T03:45:51;8.30;99.90
27226;DHT22;14732;51.074;3.788;2024-01-06T03:48:16;8.20;99.90
27226;DHT22;14732;51.074;3.788;2024-01-06T03:50:42;8.30;99.90
27226;DHT22;14732;51.074;3.788;2024-01-06T03:53:08;8.30;99.90
27226;DHT22;14732;51.074;3.788;2024-01-06T03:55:33;8.30;99.90
27226;DHT22;14732;51.074;3.788;2024-01-06T03:57:59;8.40;99.90
27226;DHT22;14732;51.074;3.788;2024-01-06T04:00:25;8.70;99.90
27226;DHT22;14732;51.074;3.788;2024-01-06T04:02:51;8.60;99.90
27226;DHT22;14732;51.074;3.788;2024-01-06T04:05:17;8.50;99.90
27226;DHT22;14732;51.074;3.788;2024-01-06T04:07:42;8.40;99.90
27226;DHT22;14732;51.074;3.788;2024-01-06T04:10:08;8.50;99.90
27226;DHT22;14732;51.074;3.788;2024-01-06T04:12:34;8.60;99.90
27226;DHT22;14732;51.074;3.788;2024-01-06T04:15:01;8.60;99.90
27226;DHT22;14732;51.074;3.788;2024-01-06T04:17:27;8.80;99.90
27226;DHT22;14732;51.074;3.788;2024-01-06T04:19:53;9.10;99.90
27226;DHT22;14732;51.074;3.788;2024-01-06T04:22:19;9.00;99.90
27226;DHT22;14732;51.074;3.788;2024-01-06T04:24:44;9.10;99.90
27226;DHT22;14732;51.074;3.788;2024-01-06T04:27:10;9.00;99.90
27226;DHT22;14732;51.074;3.788;2024-01-06T04:29:36;8.90;99.90
27226;DHT22;14732;51.074;3.788;2024-01-06T04:32:01;8.70;99.90
27226;DHT22;14732;51.074;3.788;2024-01-06T04:34:27;8.60;99.90
27226;DHT22;14732;51.074;3.788;2024-01-06T04:36:53;8.80;99.90
27226;DHT22;14732;51.074;3.788;2024-01-06T04:39:18;8.50;99.90
27226;DHT22;14732;51.074;3.788;2024-01-06T04:41:44;8.30;99.90
27226;DHT22;14732;51.074;3.788;2024-01-06T04:44:10;8.20;99.90
27226;DHT22;14732;51.074;3.788;2024-01-06T04:46:35;8.30;99.90
27226;DHT22;14732;51.074;3.788;2024-01-06T04:49:01;8.30;99.90
27226;DHT22;14732;51.074;3.788;2024-01-06T04:51:27;8.20;99.90
27226;DHT22;14732;51.074;3.788;2024-01-06T04:53:52;8.30;99.90
27226;DHT22;14732;51.074;3.788;2024-01-06T04:56:18;8.40;99.90
27226;DHT22;14732;51.074;3.788;2024-01-06T04:58:44;8.20;99.90
27226;DHT22;14732;51.074;3.788;2024-01-06T05:01:10;8.20;99.90
27226;DHT22;14732;51.074;3.788;2024-01-06T05:03:36;8.30;99.90
27226;DHT22;14732;51.074;3.788;2024-01-06T05:06:01;8.50;99.90
27226;DHT22;14732;51.074;3.788;2024-01-06T05:08:27;8.60;99.90
27226;DHT22;14732;51.074;3.788;2024-01-06T05:10:55;8.70;99.90
27226;DHT22;14732;51.074;3.788;2024-01-06T05:13:21;8.50;99.90
27226;DHT22;14732;51.074;3.788;2024-01-06T05:15:47;8.70;99.90
27226;DHT22;14732;51.074;3.788;2024-01-06T05:18:13;8.70;99.90
27226;DHT22;14732;51.074;3.788;2024-01-06T05:20:38;8.50;99.90
27226;DHT22;14732;51.074;3.788;2024-01-06T05:23:06;8.30;99.90
27226;DHT22;14732;51.074;3.788;2024-01-06T05:25:32;8.20;99.90
27226;DHT22;14732;51.074;3.788;2024-01-06T05:27:58;8.00;99.90
27226;DHT22;14732;51.074;3.788;2024-01-06T05:30:23;8.00;99.90
27226;DHT22;14732;51.074;3.788;2024-01-06T05:32:49;8.20;99.90
27226;DHT22;14732;51.074;3.788;2024-01-06T05:35:18;8.10;99.90
27226;DHT22;14732;51.074;3.788;2024-01-06T05:37:43;8.10;99.90
27226;DHT22;14732;51.074;3.788;2024-01-06T05:40:09;8.10;99.90
27226;DHT22;14732;51.074;3.788;2024-01-06T05:42:36;8.30;99.90
27226;DHT22;14732;51.074;3.788;2024-01-06T05:45:02;8.30;99.90
27226;DHT22;14732;51.074;3.788;2024-01-06T05:47:28;8.60;99.90
27226;DHT22;14732;51.074;3.788;2024-01-06T05:49:53;8.60;99.90
27226;DHT22;14732;51.074;3.788;2024-01-06T05:52:19;8.60;99.90
27226;DHT22;14732;51.074;3.788;2024-01-06T05:54:45;8.30;99.90
27226;DHT22;14732;51.074;3.788;2024-01-06T05:57:10;8.40;99.90
27226;DHT22;14732;51.074;3.788;2024-01-06T05:59:37;8.30;99.90
27226;DHT22;14732;51.074;3.788;2024-01-06T06:02:02;8.20;99.90
27226;DHT22;14732;51.074;3.788;2024-01-06T06:04:29;8.20;99.90
27226;DHT22;14732;51.074;3.788;2024-01-06T06:06:54;8.20;99.90
27226;DHT22;14732;51.074;3.788;2024-01-06T06:09:20;8.10;99.90
27226;DHT22;14732;51.074;3.788;2024-01-06T06:11:47;8.10;99.90
27226;DHT22;14732;51.074;3.788;2024-01-06T06:14:13;8.20;99.90
27226;DHT22;14732;51.074;3.788;2024-01-06T06:16:39;8.10;99.90
27226;DHT22;14732;51.074;3.788;2024-01-06T06:19:05;8.10;99.90
27226;DHT22;14732;51.074;3.788;2024-01-06T06:21:31;8.00;99.90
27226;DHT22;14732;51.074;3.788;2024-01-06T06:23:57;7.90;99.90
27226;DHT22;14732;51.074;3.788;2024-01-06T06:26:22;7.90;99.90
27226;DHT22;14732;51.074;3.788;2024-01-06T06:28:48;8.00;99.90
27226;DHT22;14732;51.074;3.788;2024-01-06T06:31:14;8.10;99.90
27226;DHT22;14732;51.074;3.788;2024-01-06T06:33:39;8.20;99.90
27226;DHT22;14732;51.074;3.788;2024-01-06T06:36:05;8.30;99.90
27226;DHT22;14732;51.074;3.788;2024-01-06T06:38:31;8.30;99.90
27226;DHT22;14732;51.074;3.788;2024-01-06T06:40:57;8.30;99.90
27226;DHT22;14732;51.074;3.788;2024-01-06T06:43:23;8.50;99.90
27226;DHT22;14732;51.074;3.788;2024-01-06T06:45:48;8.60;99.90
27226;DHT22;14732;51.074;3.788;2024-01-06T06:48:14;8.30;99.90
27226;DHT22;14732;51.074;3.788;2024-01-06T06:50:40;8.30;99.90
27226;DHT22;14732;51.074;3.788;2024-01-06T06:53:07;8.10;99.90
27226;DHT22;14732;51.074;3.788;2024-01-06T06:55:33;7.90;99.90
27226;DHT22;14732;51.074;3.788;2024-01-06T06:57:58;7.70;99.90
27226;DHT22;14732;51.074;3.788;2024-01-06T07:00:24;7.50;99.90
27226;DHT22;14732;51.074;3.788;2024-01-06T07:02:50;7.50;99.90
27226;DHT22;14732;51.074;3.788;2024-01-06T07:05:15;7.50;99.90
27226;DHT22;14732;51.074;3.788;2024-01-06T07:07:42;7.60;99.90
27226;DHT22;14732;51.074;3.788;2024-01-06T07:10:12;7.50;99.90
27226;DHT22;14732;51.074;3.788;2024-01-06T07:12:38;7.40;99.90
27226;DHT22;14732;51.074;3.788;2024-01-06T07:15:04;7.30;99.90
27226;DHT22;14732;51.074;3.788;2024-01-06T07:17:29;7.20;99.90
27226;DHT22;14732;51.074;3.788;2024-01-06T07:19:55;7.20;99.90
27226;DHT22;14732;51.074;3.788;2024-01-06T07:22:21;7.20;99.90
27226;DHT22;14732;51.074;3.788;2024-01-06T07:24:46;7.30;99.90
27226;DHT22;14732;51.074;3.788;2024-01-06T07:27:12;7.40;99.90
27226;DHT22;14732;51.074;3.788;2024-01-06T07:29:38;7.60;99.90
27226;DHT22;14732;51.074;3.788;2024-01-06T07:32:04;7.60;99.90
27226;DHT22;14732;51.074;3.788;2024-01-06T07:34:31;7.70;99.90
27226;DHT22;14732;51.074;3.788;2024-01-06T07:36:57;7.90;99.90
27226;DHT22;14732;51.074;3.788;2024-01-06T07:39:23;8.10;99.90
27226;DHT22;14732;51.074;3.788;2024-01-06T07:41:50;8.10;99.90
27226;DHT22;14732;51.074;3.788;2024-01-06T07:44:15;8.00;99.90
27226;DHT22;14732;51.074;3.788;2024-01-06T07:46:44;8.10;99.90
27226;DHT22;14732;51.074;3.788;2024-01-06T07:49:09;8.30;99.90
27226;DHT22;14732;51.074;3.788;2024-01-06T07:51:35;8.30;99.90
27226;DHT22;14732;51.074;3.788;2024-01-06T07:54:01;8.40;99.90
27226;DHT22;14732;51.074;3.788;2024-01-06T07:56:27;8.50;99.90
27226;DHT22;14732;51.074;3.788;2024-01-06T07:58:53;8.30;99.90
27226;DHT22;14732;51.074;3.788;2024-01-06T08:01:18;8.50;99.90
27226;DHT22;14732;51.074;3.788;2024-01-06T08:03:44;8.40;99.90
27226;DHT22;14732;51.074;3.788;2024-01-06T08:06:10;8.30;99.90
27226;DHT22;14732;51.074;3.788;2024-01-06T08:08:36;8.20;99.90
27226;DHT22;14732;51.074;3.788;2024-01-06T08:11:01;8.30;99.90
27226;DHT22;14732;51.074;3.788;2024-01-06T08:13:27;8.30;99.90
27226;DHT22;14732;51.074;3.788;2024-01-06T08:15:53;8.30;99.90
27226;DHT22;14732;51.074;3.788;2024-01-06T08:18:18;8.30;99.90
27226;DHT22;14732;51.074;3.788;2024-01-06T08:20:44;8.10;99.90
27226;DHT22;14732;51.074;3.788;2024-01-06T08:23:10;8.10;99.90
27226;DHT22;14732;51.074;3.788;2024-01-06T08:25:36;8.20;99.90
27226;DHT22;14732;51.074;3.788;2024-01-06T08:28:02;8.30;99.90
27226;DHT22;14732;51.074;3.788;2024-01-06T08:30:27;8.30;99.90
27226;DHT22;14732;51.074;3.788;2024-01-06T08:32:53;8.30;99.90
27226;DHT22;14732;51.074;3.788;2024-01-06T08:35:19;8.10;99.90
27226;DHT22;14732;51.074;3.788;2024-01-06T08:37:45;7.90;99.90
27226;DHT22;14732;51.074;3.788;2024-01-06T08:40:11;7.70;99.90
27226;DHT22;14732;51.074;3.788;2024-01-06T08:42:36;7.50;99.90
27226;DHT22;14732;51.074;3.788;2024-01-06T08:45:03;7.40;99.90
27226;DHT22;14732;51.074;3.788;2024-01-06T08:47:30;7.30;99.90
27226;DHT22;14732;51.074;3.788;2024-01-06T08:49:56;7.30;99.90
27226;DHT22;14732;51.074;3.788;2024-01-06T08:52:22;7.30;99.90
27226;DHT22;14732;51.074;3.788;2024-01-06T08:54:47;7.30;99.90
27226;DHT22;14732;51.074;3.788;2024-01-06T08:57:15;7.20;99.90
27226;DHT22;14732;51.074;3.788;2024-01-06T08:59:40;7.10;99.90
27226;DHT22;14732;51.074;3.788;2024-01-06T09:02:06;7.20;99.90
27226;DHT22;14732;51.074;3.788;2024-01-06T09:04:32;7.30;99.90
27226;DHT22;14732;51.074;3.788;2024-01-06T09:06:57;7.30;99.90
27226;DHT22;14732;51.074;3.788;2024-01-06T09:09:23;7.40;99.90
27226;DHT22;14732;51.074;3.788;2024-01-06T09:11:49;7.60;99.90
27226;DHT22;14732;51.074;3.788;2024-01-06T09:14:17;7.60;99.90
27226;DHT22;14732;51.074;3.788;2024-01-06T09:16:42;7.80;99.90
27226;DHT22;14732;51.074;3.788;2024-01-06T09:19:08;7.90;99.90
27226;DHT22;14732;51.074;3.788;2024-01-06T09:21:33;8.00;99.90
27226;DHT22;14732;51.074;3.788;2024-01-06T09:23:59;8.00;99.90
27226;DHT22;14732;51.074;3.788;2024-01-06T09:26:30;8.10;99.90
27226;DHT22;14732;51.074;3.788;2024-01-06T09:28:56;8.00;99.90
27226;DHT22;14732;51.074;3.788;2024-01-06T09:31:22;8.10;99.90
27226;DHT22;14732;51.074;3.788;2024-01-06T09:33:47;8.10;99.90
27226;DHT22;14732;51.074;3.788;2024-01-06T09:36:15;7.90;99.90
27226;DHT22;14732;51.074;3.788;2024-01-06T09:38:40;8.00;99.90
27226;DHT22;14732;51.074;3.788;2024-01-06T09:41:06;8.10;99.90
27226;DHT22;14732;51.074;3.788;2024-01-06T09:43:32;7.90;99.90
27226;DHT22;14732;51.074;3.788;2024-01-06T09:46:06;8.00;99.90
27226;DHT22;14732;51.074;3.788;2024-01-06T09:48:40;7.70;99.90
27226;DHT22;14732;51.074;3.788;2024-01-06T09:51:10;7.50;99.90
27226;DHT22;14732;51.074;3.788;2024-01-06T09:53:47;7.40;99.90
27226;DHT22;14732;51.074;3.788;2024-01-06T09:56:15;7.20;99.90
27226;DHT22;14732;51.074;3.788;2024-01-06T09:58:41;7.10;99.90
27226;DHT22;14732;51.074;3.788;2024-01-06T10:01:08;6.90;99.90
27226;DHT22;14732;51.074;3.788;2024-01-06T10:03:38;6.90;99.90
27226;DHT22;14732;51.074;3.788;2024-01-06T10:06:04;7.00;99.90
27226;DHT22;14732;51.074;3.788;2024-01-06T10:08:30;6.90;99.90
27226;DHT22;14732;51.074;3.788;2024-01-06T10:10:59;6.90;99.90
27226;DHT22;14732;51.074;3.788;2024-01-06T10:13:26;7.10;99.90
27226;DHT22;14732;51.074;3.788;2024-01-06T10:15:54;7.30;99.90
27226;DHT22;14732;51.074;3.788;2024-01-06T10:18:20;7.40;99.90
27226;DHT22;14732;51.074;3.788;2024-01-06T10:20:47;7.50;99.90
27226;DHT22;14732;51.074;3.788;2024-01-06T10:23:13;7.50;99.90
27226;DHT22;14732;51.074;3.788;2024-01-06T10:25:38;7.50;99.90
27226;DHT22;14732;51.074;3.788;2024-01-06T10:28:05;7.40;99.90
27226;DHT22;14732;51.074;3.788;2024-01-06T10:30:31;7.50;99.90
27226;DHT22;14732;51.074;3.788;2024-01-06T10:32:57;7.50;99.90
27226;DHT22;14732;51.074;3.788;2024-01-06T10:35:24;7.30;99.90
27226;DHT22;14732;51.074;3.788;2024-01-06T10:37:51;7.30;99.90
27226;DHT22;14732;51.074;3.788;2024-01-06T10:40:17;7.10;99.90
27226;DHT22;14732;51.074;3.788;2024-01-06T10:42:44;7.20;99.90
27226;DHT22;14732;51.074;3.788;2024-01-06T10:45:12;7.10;99.90
27226;DHT22;14732;51.074;3.788;2024-01-06T10:47:40;7.20;99.90
27226;DHT22;14732;51.074;3.788;2024-01-06T10:50:06;7.10;99.90
27226;DHT22;14732;51.074;3.788;2024-01-06T10:52:34;7.10;99.90
27226;DHT22;14732;51.074;3.788;2024-01-06T10:55:01;7.00;99.90
27226;DHT22;14732;51.074;3.788;2024-01-06T10:57:29;6.90;99.90
27226;DHT22;14732;51.074;3.788;2024-01-06T10:59:58;6.90;99.90
27226;DHT22;14732;51.074;3.788;2024-01-06T11:02:24;7.00;99.90
27226;DHT22;14732;51.074;3.788;2024-01-06T11:04:51;7.00;99.90
27226;DHT22;14732;51.074;3.788;2024-01-06T11:07:21;6.90;99.90
27226;DHT22;14732;51.074;3.788;2024-01-06T11:10:01;7.00;99.90
27226;DHT22;14732;51.074;3.788;2024-01-06T11:12:28;7.10;99.90
27226;DHT22;14732;51.074;3.788;2024-01-06T11:14:54;7.20;99.90
27226;DHT22;14732;51.074;3.788;2024-01-06T11:17:57;7.10;99.90
27226;DHT22;14732;51.074;3.788;2024-01-06T11:20:25;7.10;99.90
27226;DHT22;14732;51.074;3.788;2024-01-06T11:22:52;7.00;99.90
27226;DHT22;14732;51.074;3.788;2024-01-06T11:25:19;7.00;99.90
27226;DHT22;14732;51.074;3.788;2024-01-06T11:27:49;7.00;99.90
27226;DHT22;14732;51.074;3.788;2024-01-06T11:30:26;7.10;99.90
27226;DHT22;14732;51.074;3.788;2024-01-06T11:32:55;7.20;99.90
27226;DHT22;14732;51.074;3.788;2024-01-06T11:35:26;7.30;99.90
27226;DHT22;14732;51.074;3.788;2024-01-06T11:37:58;7.40;99.90
27226;DHT22;14732;51.074;3.788;2024-01-06T11:40:31;7.40;99.90
27226;DHT22;14732;51.074;3.788;2024-01-06T11:43:04;7.50;99.90
27226;DHT22;14732;51.074;3.788;2024-01-06T11:45:40;7.50;99.90
27226;DHT22;14732;51.074;3.788;2024-01-06T11:48:08;7.50;99.90
27226;DHT22;14732;51.074;3.788;2024-01-06T11:50:35;7.30;99.90
27226;DHT22;14732;51.074;3.788;2024-01-06T11:53:02;7.30;99.90
27226;DHT22;14732;51.074;3.788;2024-01-06T11:55:29;7.10;99.90
27226;DHT22;14732;51.074;3.788;2024-01-06T11:57:57;6.90;99.90
27226;DHT22;14732;51.074;3.788;2024-01-06T12:00:23;6.80;99.90
27226;DHT22;14732;51.074;3.788;2024-01-06T12:02:49;6.80;99.90
27226;DHT22;14732;51.074;3.788;2024-01-06T12:05:16;6.70;99.90
27226;DHT22;14732;51.074;3.788;2024-01-06T12:07:53;6.80;99.90
27226;DHT22;14732;51.074;3.788;2024-01-06T12:10:20;6.80;99.90
27226;DHT22;14732;51.074;3.788;2024-01-06T12:12:57;6.70;99.90
27226;DHT22;14732;51.074;3.788;2024-01-06T12:15:24;6.80;99.90
27226;DHT22;14732;51.074;3.788;2024-01-06T12:17:50;6.90;99.90
27226;DHT22;14732;51.074;3.788;2024-01-06T12:20:16;6.90;99.90
27226;DHT22;14732;51.074;3.788;2024-01-06T12:22:42;7.10;99.90
27226;DHT22;14732;51.074;3.788;2024-01-06T12:25:09;7.30;99.90
27226;DHT22;14732;51.074;3.788;2024-01-06T12:27:34;7.30;99.90
27226;DHT22;14732;51.074;3.788;2024-01-06T12:30:00;7.20;99.90
27226;DHT22;14732;51.074;3.788;2024-01-06T12:32:26;7.10;99.90
27226;DHT22;14732;51.074;3.788;2024-01-06T12:34:53;7.10;99.90
27226;DHT22;14732;51.074;3.788;2024-01-06T12:37:19;6.90;99.90
27226;DHT22;14732;51.074;3.788;2024-01-06T12:39:47;7.10;99.90
27226;DHT22;14732;51.074;3.788;2024-01-06T12:42:15;7.00;99.90
27226;DHT22;14732;51.074;3.788;2024-01-06T12:44:42;7.00;99.90
27226;DHT22;14732;51.074;3.788;2024-01-06T12:47:08;7.00;99.90
27226;DHT22;14732;51.074;3.788;2024-01-06T12:49:33;7.10;99.90
27226;DHT22;14732;51.074;3.788;2024-01-06T12:51:59;7.00;99.90
27226;DHT22;14732;51.074;3.788;2024-01-06T12:54:25;7.00;99.90
27226;DHT22;14732;51.074;3.788;2024-01-06T12:56:51;6.80;99.90
27226;DHT22;14732;51.074;3.788;2024-01-06T12:59:16;6.80;99.90
27226;DHT22;14732;51.074;3.788;2024-01-06T13:01:42;6.90;99.90
27226;DHT22;14732;51.074;3.788;2024-01-06T13:04:08;7.00;99.90
27226;DHT22;14732;51.074;3.788;2024-01-06T13:06:34;7.20;99.90
27226;DHT22;14732;51.074;3.788;2024-01-06T13:09:00;7.20;99.90
27226;DHT22;14732;51.074;3.788;2024-01-06T13:11:31;7.10;99.90
27226;DHT22;14732;51.074;3.788;2024-01-06T13:13:57;7.10;99.90
27226;DHT22;14732;51.074;3.788;2024-01-06T13:16:22;7.20;99.90
27226;DHT22;14732;51.074;3.788;2024-01-06T13:18:48;7.10;99.90
27226;DHT22;14732;51.074;3.788;2024-01-06T13:21:14;6.90;99.90
27226;DHT22;14732;51.074;3.788;2024-01-06T13:23:39;7.00;99.90
27226;DHT22;14732;51.074;3.788;2024-01-06T13:26:05;7.30;99.90
27226;DHT22;14732;51.074;3.788;2024-01-06T13:28:31;7.20;99.90
27226;DHT22;14732;51.074;3.788;2024-01-06T13:30:57;7.10;99.90
27226;DHT22;14732;51.074;3.788;2024-01-06T13:33:23;6.90;99.90
27226;DHT22;14732;51.074;3.788;2024-01-06T13:35:48;6.90;99.90
27226;DHT22;14732;51.074;3.788;2024-01-06T13:38:14;6.90;99.90
27226;DHT22;14732;51.074;3.788;2024-01-06T13:40:41;7.00;99.90
27226;DHT22;14732;51.074;3.788;2024-01-06T13:43:07;7.00;99.90
27226;DHT22;14732;51.074;3.788;2024-01-06T13:45:35;7.00;99.90
27226;DHT22;14732;51.074;3.788;2024-01-06T13:48:01;7.00;99.90
27226;DHT22;14732;51.074;3.788;2024-01-06T13:50:27;7.10;99.90
27226;DHT22;14732;51.074;3.788;2024-01-06T13:52:53;7.20;99.90
27226;DHT22;14732;51.074;3.788;2024-01-06T13:55:19;7.30;99.90
27226;DHT22;14732;51.074;3.788;2024-01-06T13:57:45;7.50;99.90
27226;DHT22;14732;51.074;3.788;2024-01-06T14:00:12;7.60;99.90
27226;DHT22;14732;51.074;3.788;2024-01-06T14:02:41;7.50;99.90
27226;DHT22;14732;51.074;3.788;2024-01-06T14:05:07;7.40;99.90
27226;DHT22;14732;51.074;3.788;2024-01-06T14:07:34;7.20;99.90
27226;DHT22;14732;51.074;3.788;2024-01-06T14:10:00;7.00;99.90
27226;DHT22;14732;51.074;3.788;2024-01-06T14:12:26;7.00;99.90
27226;DHT22;14732;51.074;3.788;2024-01-06T14:14:51;6.90;99.90
27226;DHT22;14732;51.074;3.788;2024-01-06T14:17:17;7.00;99.90
27226;DHT22;14732;51.074;3.788;2024-01-06T14:19:42;7.10;99.90
27226;DHT22;14732;51.074;3.788;2024-01-06T14:22:08;7.00;99.90
27226;DHT22;14732;51.074;3.788;2024-01-06T14:24:34;7.20;99.90
27226;DHT22;14732;51.074;3.788;2024-01-06T14:27:01;7.20;99.90
27226;DHT22;14732;51.074;3.788;2024-01-06T14:29:26;7.00;99.90
27226;DHT22;14732;51.074;3.788;2024-01-06T14:31:52;7.00;99.90
27226;DHT22;14732;51.074;3.788;2024-01-06T14:34:18;6.70;99.90
27226;DHT22;14732;51.074;3.788;2024-01-06T14:36:44;6.70;99.90
27226;DHT22;14732;51.074;3.788;2024-01-06T14:39:16;6.80;99.90
27226;DHT22;14732;51.074;3.788;2024-01-06T14:41:42;7.00;99.90
27226;DHT22;14732;51.074;3.788;2024-01-06T14:44:08;7.30;99.90
27226;DHT22;14732;51.074;3.788;2024-01-06T14:46:34;7.40;99.90
27226;DHT22;14732;51.074;3.788;2024-01-06T14:49:01;7.20;99.90
27226;DHT22;14732;51.074;3.788;2024-01-06T14:51:28;7.10;99.90
27226;DHT22;14732;51.074;3.788;2024-01-06T14:53:54;7.10;99.90
27226;DHT22;14732;51.074;3.788;2024-01-06T14:56:21;6.70;99.90
27226;DHT22;14732;51.074;3.788;2024-01-06T14:58:46;6.50;99.90
27226;DHT22;14732;51.074;3.788;2024-01-06T15:01:13;6.50;99.90
27226;DHT22;14732;51.074;3.788;2024-01-06T15:03:38;6.60;99.90
27226;DHT22;14732;51.074;3.788;2024-01-06T15:06:04;6.70;99.90
27226;DHT22;14732;51.074;3.788;2024-01-06T15:08:29;6.80;99.90
27226;DHT22;14732;51.074;3.788;2024-01-06T15:10:56;6.70;99.90
27226;DHT22;14732;51.074;3.788;2024-01-06T15:13:21;6.50;99.90
27226;DHT22;14732;51.074;3.788;2024-01-06T15:15:47;6.40;99.90
27226;DHT22;14732;51.074;3.788;2024-01-06T15:18:16;6.50;99.90
27226;DHT22;14732;51.074;3.788;2024-01-06T15:20:41;6.40;99.90
27226;DHT22;14732;51.074;3.788;2024-01-06T15:23:07;6.40;99.90
27226;DHT22;14732;51.074;3.788;2024-01-06T15:25:33;6.50;99.90
27226;DHT22;14732;51.074;3.788;2024-01-06T15:27:58;6.40;99.90
27226;DHT22;14732;51.074;3.788;2024-01-06T15:30:24;6.40;99.90
27226;DHT22;14732;51.074;3.788;2024-01-06T15:32:49;6.60;99.90
27226;DHT22;14732;51.074;3.788;2024-01-06T15:35:15;6.80;99.90
27226;DHT22;14732;51.074;3.788;2024-01-06T15:37:41;6.80;99.90
27226;DHT22;14732;51.074;3.788;2024-01-06T15:40:07;6.70;99.90